createdAt,value
2019-04-19T00:00:37.280Z,33.30
2019-04-19T00:03:04.523Z,33.40
2019-04-19T00:05:35.812Z,33.70
2019-04-19T00:08:17.026Z,33.30
2019-04-19T00:10:38.430Z,33.30
2019-04-19T00:13:01.632Z,33.20
2019-04-19T00:15:26.892Z,33.30
2019-04-19T00:18:03.093Z,33.30
2019-04-19T00:20:40.248Z,33.30
2019-04-19T00:23:04.291Z,33.30
2019-04-19T00:25:20.252Z,33.30
2019-04-19T00:27:52.500Z,33.30
2019-04-19T00:30:29.716Z,33.30
2019-04-19T00:33:02.390Z,33.20
2019-04-19T00:35:13.705Z,33.80
2019-04-19T00:37:40.823Z,33.20
2019-04-19T00:40:28.169Z,33.20
2019-04-19T00:42:48.359Z,33.20
2019-04-19T00:45:25.130Z,33.10
2019-04-19T00:47:48.956Z,33.10
2019-04-19T00:50:15.394Z,33.10
2019-04-19T00:52:53.284Z,33.10
2019-04-19T00:55:12.179Z,33.10
2019-04-19T00:57:38.192Z,33.10
2019-04-19T00:59:58.139Z,33.10
2019-04-19T01:02:26.370Z,33.10
2019-04-19T01:04:59.276Z,33.00
2019-04-19T01:07:28.397Z,33.00
2019-04-19T01:10:09.626Z,33.30
2019-04-19T01:12:28.835Z,33.00
2019-04-19T01:15:04.570Z,33.00
2019-04-19T01:17:31.178Z,33.00
2019-04-19T01:19:51.939Z,33.00
2019-04-19T01:22:22.007Z,32.90
2019-04-19T01:24:46.785Z,33.10
2019-04-19T01:27:19.524Z,33.00
2019-04-19T01:29:46.189Z,33.00
2019-04-19T01:32:15.109Z,33.00
2019-04-19T01:34:39.615Z,32.70
2019-04-19T01:37:11.316Z,33.00
2019-04-19T01:39:55.599Z,33.00
2019-04-19T01:42:20.897Z,33.00
2019-04-19T01:44:47.890Z,32.90
2019-04-19T01:47:23.947Z,33.00
2019-04-19T01:49:48.610Z,33.00
2019-04-19T01:52:24.922Z,33.00
2019-04-19T01:54:47.959Z,32.90
2019-04-19T01:57:02.423Z,32.90
2019-04-19T01:59:33.270Z,32.90
2019-04-19T02:02:05.410Z,32.90
2019-04-19T02:04:26.697Z,32.90
2019-04-19T02:06:52.956Z,32.90
2019-04-19T02:09:31.751Z,32.90
2019-04-19T02:11:57.953Z,32.90
2019-04-19T02:14:22.763Z,32.90
2019-04-19T02:16:52.481Z,32.80
2019-04-19T02:19:21.198Z,32.80
2019-04-19T02:21:47.302Z,32.90
2019-04-19T02:24:14.631Z,32.80
2019-04-19T02:26:46.366Z,32.80
2019-04-19T02:29:17.760Z,32.80
2019-04-19T02:32:07.657Z,32.80
2019-04-19T02:34:35.760Z,32.80
2019-04-19T02:39:38.414Z,32.70
2019-04-19T02:42:09.142Z,32.80
2019-04-19T02:44:26.738Z,32.80
2019-04-19T02:49:38.537Z,32.70
2019-04-19T02:54:30.526Z,32.70
2019-04-19T02:57:18.760Z,32.70
2019-04-19T02:59:37.332Z,32.70
2019-04-19T03:01:55.457Z,32.60
2019-04-19T03:04:39.404Z,32.70
2019-04-19T03:06:32.498Z,32.70
2019-04-19T03:08:50.884Z,32.70
2019-04-19T03:11:37.642Z,32.70
2019-04-19T03:14:06.920Z,32.80
2019-04-19T03:16:38.351Z,32.70
2019-04-19T03:19:00.829Z,32.80
2019-04-19T03:21:33.097Z,32.70
2019-04-19T03:24:00.043Z,32.80
2019-04-19T03:26:25.710Z,32.70
2019-04-19T03:28:46.310Z,32.70
2019-04-19T03:36:23.010Z,32.40
2019-04-19T03:38:51.590Z,32.50
2019-04-19T03:41:29.310Z,32.60
2019-04-19T03:43:52.247Z,32.50
2019-04-19T03:46:17.437Z,32.50
2019-04-19T03:48:48.760Z,32.50
2019-04-19T03:51:13.923Z,32.50
2019-04-19T03:53:50.226Z,33.10
2019-04-19T03:58:26.897Z,32.50
2019-04-19T04:00:53.860Z,32.50
2019-04-19T04:03:30.080Z,32.40
2019-04-19T04:05:53.008Z,32.40
2019-04-19T04:08:21.448Z,32.60
2019-04-19T04:10:48.617Z,32.50
2019-04-19T04:13:28.722Z,32.40
2019-04-19T04:15:57.042Z,32.50
2019-04-19T04:18:15.444Z,32.40
2019-04-19T04:20:48.607Z,32.50
2019-04-19T04:23:16.449Z,32.40
2019-04-19T04:25:48.412Z,32.40
2019-04-19T04:28:26.448Z,32.40
2019-04-19T04:30:51.622Z,32.50
2019-04-19T04:33:21.577Z,32.40
2019-04-19T04:35:49.472Z,32.40
2019-04-19T04:38:16.108Z,32.40
2019-04-19T04:40:33.804Z,32.40
2019-04-19T04:43:13.847Z,32.40
2019-04-19T04:45:58.239Z,32.40
2019-04-19T04:48:20.584Z,32.30
2019-04-19T04:50:50.746Z,32.40
2019-04-19T04:52:56.134Z,32.30
2019-04-19T04:55:24.294Z,32.30
2019-04-19T04:57:56.997Z,32.30
2019-04-19T05:00:26.920Z,32.30
2019-04-19T05:03:06.475Z,32.30
2019-04-19T05:05:35.763Z,32.30
2019-04-19T05:08:09.297Z,32.30
2019-04-19T05:10:33.383Z,33.00
2019-04-19T05:13:16.611Z,32.30
2019-04-19T05:15:34.855Z,32.20
2019-04-19T05:18:04.950Z,32.20
2019-04-19T05:20:27.878Z,32.20
2019-04-19T05:22:59.265Z,32.20
2019-04-19T05:25:32.247Z,32.20
2019-04-19T05:27:55.308Z,32.20
2019-04-19T05:30:06.949Z,32.20
2019-04-19T05:32:37.455Z,32.20
2019-04-19T05:35:15.690Z,32.20
2019-04-19T05:37:54.361Z,32.20
2019-04-19T05:40:21.604Z,32.20
2019-04-19T05:42:45.606Z,32.20
2019-04-19T05:47:40.599Z,32.20
2019-04-19T05:50:17.054Z,32.20
2019-04-19T05:52:44.900Z,32.10
2019-04-19T05:54:53.821Z,32.10
2019-04-19T05:57:40.754Z,32.10
2019-04-19T05:59:56.897Z,32.10
2019-04-19T06:02:28.448Z,32.20
2019-04-19T06:05:10.078Z,32.10
2019-04-19T06:07:31.767Z,32.20
2019-04-19T06:09:45.579Z,32.30
2019-04-19T06:12:19.959Z,32.30
2019-04-19T06:15:05.556Z,32.30
2019-04-19T06:17:29.125Z,32.30
2019-04-19T06:19:52.668Z,32.30
2019-04-19T06:22:26.980Z,32.30
2019-04-19T06:24:57.026Z,32.30
2019-04-19T06:27:38.750Z,32.30
2019-04-19T06:30:04.754Z,32.40
2019-04-19T06:32:36.320Z,32.40
2019-04-19T06:34:49.914Z,32.50
2019-04-19T06:37:21.552Z,32.60
2019-04-19T06:39:46.026Z,32.50
2019-04-19T06:42:15.229Z,32.20
2019-04-19T06:45:03.767Z,32.30
2019-04-19T06:47:19.689Z,32.10
2019-04-19T06:49:40.619Z,31.50
2019-04-19T06:52:14.978Z,31.50
2019-04-19T06:54:41.611Z,31.50
2019-04-19T06:57:16.501Z,31.30
2019-04-19T07:00:07.547Z,31.50
2019-04-19T07:02:22.307Z,31.40
2019-04-19T07:05:08.925Z,31.50
2019-04-19T07:07:58.180Z,31.70
2019-04-19T07:16:24.734Z,31.90
2019-04-19T07:18:42.658Z,32.00
2019-04-19T07:21:16.621Z,32.10
2019-04-19T07:23:51.573Z,32.00
2019-04-19T07:26:20.332Z,31.90
2019-04-19T07:28:31.602Z,32.20
2019-04-19T07:30:59.652Z,32.00
2019-04-19T07:33:36.111Z,33.20
2019-04-19T07:36:17.172Z,33.10
2019-04-19T07:38:46.159Z,32.70
2019-04-19T07:41:14.496Z,32.50
2019-04-19T07:46:31.113Z,32.10
2019-04-19T07:48:59.766Z,32.20
2019-04-19T07:51:33.628Z,32.10
2019-04-19T07:59:32.943Z,32.50
2019-04-19T08:10:28.394Z,33.00
2019-04-19T08:13:01.014Z,33.00
2019-04-19T08:18:09.726Z,33.30
2019-04-19T08:28:24.723Z,33.00
2019-04-19T08:30:47.836Z,33.20
2019-04-19T08:33:41.345Z,33.10
2019-04-19T08:36:05.236Z,33.20
2019-04-19T08:38:32.248Z,33.20
2019-04-19T08:42:09.440Z,33.10
2019-04-19T08:44:08.078Z,33.10
2019-04-19T08:49:28.522Z,34.10
2019-04-19T08:55:01.327Z,33.30
2019-04-19T08:57:16.926Z,33.10
2019-04-19T09:00:04.915Z,33.20
2019-04-19T09:02:34.146Z,33.40
2019-04-19T09:08:02.755Z,33.20
2019-04-19T09:13:33.844Z,33.40
2019-04-19T09:15:54.929Z,33.30
2019-04-19T09:20:52.465Z,33.30
2019-04-19T09:23:16.606Z,33.40
2019-04-19T09:25:40.328Z,33.60
2019-04-19T09:28:29.500Z,33.60
2019-04-19T09:30:47.993Z,33.40
2019-04-19T09:33:00.315Z,33.60
2019-04-19T09:35:52.305Z,33.70
2019-04-19T09:38:19.392Z,33.90
2019-04-19T09:40:44.527Z,34.00
2019-04-19T09:43:24.262Z,34.20
2019-04-19T09:45:40.377Z,34.40
2019-04-19T09:50:55.042Z,33.60
2019-04-19T09:53:41.722Z,33.60
2019-04-19T09:56:03.277Z,33.50
2019-04-19T09:58:25.372Z,34.10
2019-04-19T10:00:38.923Z,34.50
2019-04-19T10:03:21.192Z,33.90
2019-04-19T10:05:34.960Z,33.70
2019-04-19T10:08:02.301Z,33.70
2019-04-19T10:10:29.346Z,33.60
2019-04-19T10:12:57.965Z,33.40
2019-04-19T10:15:25.243Z,33.40
2019-04-19T10:17:52.383Z,33.70
2019-04-19T10:20:20.484Z,33.80
2019-04-19T10:22:48.758Z,33.90
2019-04-19T10:25:16.874Z,33.80
2019-04-19T10:27:45.176Z,33.90
2019-04-19T10:30:15.070Z,34.00
2019-04-19T10:32:42.320Z,34.20
2019-04-19T10:35:09.628Z,34.00
2019-04-19T10:37:37.755Z,34.10
2019-04-19T10:40:05.880Z,34.20
2019-04-19T10:42:33.601Z,34.30
2019-04-19T10:45:02.381Z,34.30
2019-04-19T10:47:29.737Z,34.50
2019-04-19T10:50:11.850Z,34.50
2019-04-19T10:52:25.806Z,34.50
2019-04-19T10:54:53.201Z,34.50
2019-04-19T10:57:21.243Z,34.50
2019-04-19T10:59:48.506Z,34.50
2019-04-19T11:02:16.062Z,34.60
2019-04-19T11:04:43.107Z,34.70
2019-04-19T11:07:10.180Z,34.70
2019-04-19T11:09:37.555Z,34.80
2019-04-19T11:12:05.935Z,34.80
2019-04-19T11:14:34.415Z,33.90
2019-04-19T11:17:01.875Z,34.50
2019-04-19T11:19:47.310Z,34.80
2019-04-19T11:21:57.804Z,34.80
2019-04-19T11:24:25.615Z,35.10
2019-04-19T11:26:53.016Z,35.10
2019-04-19T11:29:20.054Z,34.80
2019-04-19T11:31:47.709Z,35.00
2019-04-19T11:34:15.113Z,35.50
2019-04-19T11:36:42.402Z,35.50
2019-04-19T11:39:10.217Z,35.70
2019-04-19T11:41:38.694Z,35.60
2019-04-19T11:44:15.005Z,35.70
2019-04-19T11:46:35.817Z,35.70
2019-04-19T11:49:03.857Z,35.70
2019-04-19T11:51:32.124Z,35.80
2019-04-19T11:53:59.258Z,35.80
2019-04-19T11:56:34.049Z,35.80
2019-04-19T11:58:56.278Z,35.40
2019-04-19T12:01:23.859Z,35.70
2019-04-19T12:03:52.137Z,35.80
2019-04-19T12:06:20.464Z,35.80
2019-04-19T12:08:48.539Z,35.80
2019-04-19T12:11:16.456Z,35.80
2019-04-19T12:13:43.779Z,35.90
2019-04-19T12:16:11.002Z,36.20
2019-04-19T12:18:40.101Z,36.20
2019-04-19T12:21:07.252Z,36.20
2019-04-19T12:23:34.795Z,36.20
2019-04-19T12:26:02.012Z,36.30
2019-04-19T12:28:29.979Z,36.40
2019-04-19T12:30:58.688Z,36.50
2019-04-19T12:33:26.999Z,36.60
2019-04-19T12:35:55.051Z,36.90
2019-04-19T12:38:22.371Z,37.20
2019-04-19T12:40:49.915Z,37.20
2019-04-19T12:43:17.920Z,37.30
2019-04-19T12:45:50.204Z,37.40
2019-04-19T12:48:14.966Z,37.40
2019-04-19T12:50:42.145Z,37.50
2019-04-19T12:53:09.593Z,37.60
2019-04-19T12:55:37.841Z,37.60
2019-04-19T12:58:05.976Z,37.70
2019-04-19T13:00:33.993Z,37.70
2019-04-19T13:03:02.152Z,37.90
2019-04-19T13:05:29.505Z,37.90
2019-04-19T13:07:56.851Z,37.80
2019-04-19T13:10:24.905Z,37.90
2019-04-19T13:12:52.090Z,38.00
2019-04-19T13:15:19.830Z,38.00
2019-04-19T13:17:47.000Z,38.00
2019-04-19T13:20:20.807Z,38.00
2019-04-19T13:22:44.224Z,38.20
2019-04-19T13:25:14.754Z,38.10
2019-04-19T13:27:47.403Z,38.20
2019-04-19T13:30:20.946Z,38.20
2019-04-19T13:32:37.900Z,38.30
2019-04-19T13:35:05.320Z,38.20
2019-04-19T13:37:33.577Z,38.40
2019-04-19T13:40:02.067Z,38.30
2019-04-19T13:42:30.511Z,38.40
2019-04-19T13:45:09.047Z,38.40
2019-04-19T13:47:27.140Z,38.30
2019-04-19T13:49:54.813Z,38.40
2019-04-19T13:52:24.232Z,38.50
2019-04-19T13:54:52.501Z,38.40
2019-04-19T13:57:19.780Z,38.40
2019-04-19T13:59:52.989Z,38.60
2019-04-19T14:02:17.897Z,38.40
2019-04-19T14:04:44.407Z,38.40
2019-04-19T14:07:12.611Z,38.50
2019-04-19T14:09:40.983Z,38.50
2019-04-19T14:12:09.264Z,38.60
2019-04-19T14:14:37.039Z,38.60
2019-04-19T14:17:04.288Z,38.60
2019-04-19T14:19:31.494Z,38.70
2019-04-19T14:21:58.563Z,38.90
2019-04-19T14:24:40.845Z,38.60
2019-04-19T14:27:09.259Z,38.60
2019-04-19T14:29:37.257Z,38.50
2019-04-19T14:32:07.316Z,38.60
2019-04-19T14:34:35.351Z,38.50
2019-04-19T14:37:04.484Z,38.50
2019-04-19T14:39:31.847Z,38.50
2019-04-19T14:41:59.405Z,38.50
2019-04-19T14:44:27.514Z,38.60
2019-04-19T14:46:58.862Z,38.50
2019-04-19T14:49:28.983Z,38.40
2019-04-19T14:52:01.459Z,38.40
2019-04-19T14:54:29.929Z,38.40
2019-04-19T14:56:58.515Z,38.40
2019-04-19T14:59:26.049Z,38.40
2019-04-19T15:01:53.235Z,38.40
2019-04-19T15:04:21.081Z,38.40
2019-04-19T15:06:49.361Z,38.30
2019-04-19T15:09:17.472Z,38.30
2019-04-19T15:11:45.609Z,38.30
2019-04-19T15:14:12.740Z,38.20
2019-04-19T15:16:41.276Z,38.20
2019-04-19T15:19:14.375Z,38.20
2019-04-19T15:21:41.771Z,38.20
2019-04-19T15:24:08.903Z,38.20
2019-04-19T15:26:36.586Z,38.10
2019-04-19T15:29:06.946Z,38.10
2019-04-19T15:31:36.405Z,38.20
2019-04-19T15:34:03.830Z,38.10
2019-04-19T15:36:31.423Z,38.10
2019-04-19T15:41:32.345Z,38.00
2019-04-19T15:44:00.639Z,37.90
2019-04-19T15:46:29.466Z,37.70
2019-04-19T15:48:58.423Z,36.70
2019-04-19T15:51:30.537Z,34.70
2019-04-19T15:53:58.320Z,32.60
2019-04-19T15:56:27.167Z,33.40
2019-04-19T15:58:54.411Z,33.90
2019-04-19T16:01:21.919Z,34.50
2019-04-19T16:03:52.023Z,34.40
2019-04-19T16:06:22.479Z,34.80
2019-04-19T16:08:50.664Z,34.80
2019-04-19T16:11:18.563Z,35.10
2019-04-19T16:13:48.434Z,35.30
2019-04-19T16:16:14.602Z,35.50
2019-04-19T16:18:42.494Z,35.10
2019-04-19T16:21:22.859Z,33.40
2019-04-19T16:23:38.543Z,32.50
2019-04-19T16:26:08.757Z,31.80
2019-04-19T16:28:37.284Z,30.50
2019-04-19T16:31:04.542Z,30.00
2019-04-19T16:33:40.653Z,29.20
2019-04-19T16:36:07.812Z,30.10
2019-04-19T16:38:34.892Z,30.40
2019-04-19T16:41:02.009Z,31.70
2019-04-19T16:43:29.369Z,31.70
2019-04-19T16:46:05.547Z,31.70
2019-04-19T16:48:26.342Z,31.90
2019-04-19T16:51:02.305Z,32.20
2019-04-19T16:53:29.503Z,32.90
2019-04-19T16:55:59.639Z,33.60
2019-04-19T16:58:26.807Z,33.90
2019-04-19T17:00:54.652Z,33.80
2019-04-19T17:03:22.025Z,33.80
2019-04-19T17:05:50.651Z,34.10
2019-04-19T17:08:18.072Z,34.60
2019-04-19T17:10:45.289Z,34.70
2019-04-19T17:16:11.377Z,34.90
2019-04-19T17:18:38.917Z,34.80
2019-04-19T17:21:31.498Z,35.20
2019-04-19T17:23:46.837Z,34.40
2019-04-19T17:26:15.124Z,33.00
2019-04-19T17:28:44.029Z,32.00
2019-04-19T17:31:11.949Z,31.00
2019-04-19T17:33:40.063Z,31.30
2019-04-19T17:36:08.199Z,30.40
2019-04-19T17:38:46.362Z,31.00
2019-04-19T17:41:12.443Z,30.90
2019-04-19T17:43:39.521Z,31.10
2019-04-19T17:46:06.778Z,30.60
2019-04-19T17:48:34.572Z,30.90
2019-04-19T17:51:01.997Z,31.20
2019-04-19T17:53:35.866Z,31.60
2019-04-19T17:55:59.945Z,31.90
2019-04-19T17:58:27.505Z,32.30
2019-04-19T18:00:54.942Z,32.40
2019-04-19T18:03:22.797Z,32.60
2019-04-19T18:05:50.063Z,32.90
2019-04-19T18:08:24.493Z,33.20
2019-04-19T18:10:50.497Z,33.30
2019-04-19T18:13:15.177Z,33.40
2019-04-19T18:15:42.701Z,33.80
2019-04-19T18:18:10.814Z,33.90
2019-04-19T18:20:52.477Z,34.10
2019-04-19T18:23:34.694Z,34.10
2019-04-19T18:25:56.923Z,34.00
2019-04-19T18:28:25.272Z,34.10
2019-04-19T18:30:54.366Z,34.10
2019-04-19T18:33:22.118Z,34.40
2019-04-19T18:36:08.531Z,34.60
2019-04-19T18:38:26.245Z,34.50
2019-04-19T18:40:55.374Z,34.60
2019-04-19T18:43:34.867Z,34.60
2019-04-19T18:45:50.781Z,34.50
2019-04-19T18:48:17.940Z,34.70
2019-04-19T18:50:48.489Z,34.80
2019-04-19T18:53:24.453Z,34.90
2019-04-19T18:58:35.480Z,35.00
2019-04-19T19:01:01.308Z,35.00
2019-04-19T19:03:45.235Z,35.00
2019-04-19T19:06:10.819Z,35.10
2019-04-19T19:08:48.624Z,35.10
2019-04-19T19:11:15.559Z,34.90
2019-04-19T19:13:42.790Z,35.00
2019-04-19T19:16:52.761Z,35.20
2019-04-19T19:19:08.810Z,35.30
2019-04-19T19:21:41.790Z,35.20
2019-04-19T19:24:27.324Z,35.30
2019-04-19T19:29:58.429Z,35.20
2019-04-19T19:35:19.681Z,35.10
2019-04-19T19:37:46.255Z,35.10
2019-04-19T19:40:27.940Z,35.20
2019-04-19T19:45:55.874Z,35.00
2019-04-19T19:51:26.853Z,34.90
2019-04-19T19:54:31.502Z,34.80
2019-04-19T19:59:22.797Z,35.10
2019-04-19T20:02:04.953Z,35.10
2019-04-19T20:04:15.175Z,35.30
2019-04-19T20:07:00.511Z,35.30
2019-04-19T20:14:55.575Z,35.20
2019-04-19T20:17:29.282Z,35.00
2019-04-19T20:20:02.519Z,35.20
2019-04-19T20:25:34.659Z,35.10
2019-04-19T20:28:07.370Z,35.00
2019-04-19T20:30:38.785Z,34.90
2019-04-19T20:33:07.826Z,35.00
2019-04-19T20:35:32.616Z,34.90
2019-04-19T20:38:04.753Z,34.90
2019-04-19T20:40:57.713Z,34.90
2019-04-19T20:43:54.469Z,34.90
2019-04-19T20:46:08.939Z,34.80
2019-04-19T20:48:54.059Z,35.00
2019-04-19T20:51:46.914Z,34.90
2019-04-19T20:54:41.170Z,35.00
2019-04-19T20:57:06.229Z,35.00
2019-04-19T20:59:12.677Z,35.00
2019-04-19T21:01:59.117Z,34.90
2019-04-19T21:04:27.056Z,35.00
2019-04-19T21:07:08.870Z,34.80
2019-04-19T21:09:37.370Z,34.90
2019-04-19T21:12:05.422Z,34.80
2019-04-19T21:17:43.896Z,34.80
2019-04-19T21:20:08.740Z,34.90
2019-04-19T21:25:35.144Z,34.90
2019-04-19T21:27:56.305Z,34.90
2019-04-19T21:30:21.335Z,34.90
2019-04-19T21:38:23.013Z,34.90
2019-04-19T21:43:40.787Z,34.90
2019-04-19T21:46:19.186Z,34.90
2019-04-19T21:48:55.587Z,34.90
2019-04-19T21:54:21.250Z,35.60
2019-04-19T21:56:53.029Z,35.20
2019-04-19T21:59:22.791Z,35.80
2019-04-19T22:01:49.931Z,35.50
2019-04-19T22:04:17.488Z,35.40
2019-04-19T22:06:47.690Z,35.40
2019-04-19T22:09:17.133Z,35.40
2019-04-19T22:11:42.778Z,35.40
2019-04-19T22:14:14.996Z,35.30
2019-04-19T22:16:43.043Z,35.40
2019-04-19T22:19:07.779Z,35.30
2019-04-19T22:21:39.731Z,35.40
2019-04-19T22:24:04.661Z,35.40
2019-04-19T22:26:37.223Z,35.40
2019-04-19T22:29:01.714Z,35.50
2019-04-19T22:31:34.014Z,35.40
2019-04-19T22:33:58.621Z,35.50
2019-04-19T22:36:25.869Z,35.40
2019-04-19T22:38:56.621Z,35.50
2019-04-19T22:41:23.999Z,35.50
2019-04-19T22:43:51.015Z,35.50
2019-04-19T22:46:19.474Z,35.40
2019-04-19T22:48:54.363Z,35.30
2019-04-19T22:51:18.463Z,35.30
2019-04-19T22:53:44.496Z,35.20
2019-04-19T22:56:20.778Z,35.20
2019-04-19T22:58:40.376Z,35.10
2019-04-19T23:01:13.707Z,35.10
2019-04-19T23:03:38.879Z,35.10
2019-04-19T23:06:05.796Z,35.20
2019-04-19T23:08:36.771Z,35.00
2019-04-19T23:11:05.716Z,35.10
2019-04-19T23:13:31.522Z,35.00
2019-04-19T23:16:04.335Z,35.00
2019-04-19T23:18:29.377Z,35.00
2019-04-19T23:21:05.469Z,35.00
2019-04-19T23:23:29.845Z,34.90
2019-04-19T23:26:08.681Z,35.50
2019-04-19T23:28:31.067Z,34.80
2019-04-19T23:30:59.372Z,34.80
2019-04-19T23:33:22.877Z,34.80
2019-04-19T23:35:51.123Z,34.80
2019-04-19T23:38:23.539Z,34.70
2019-04-19T23:40:48.675Z,34.80
2019-04-19T23:43:25.063Z,34.70
2019-04-19T23:45:47.409Z,34.80
2019-04-19T23:48:20.074Z,34.70
2019-04-19T23:50:44.147Z,34.70
2019-04-19T23:53:12.278Z,34.60
2019-04-19T23:55:40.303Z,34.60
2019-04-19T23:58:08.194Z,34.50
